Terminal Aerodrome Forecast
Issued by NWS

Home | Current Version | Previous Version | Text Only | Print | Product List | Glossary On
Versions: 1 2 3 4 5 6 7 8 9 10 11 12 13 14 15 16 17 18
000
FTUS42 KMLB 051132
TAFFPR
TAF
KFPR 051132Z 0512/0612 16007KT P6SM SCT005
     FM051300 19010KT P6SM SCT025 SCT035
     FM060300 26006KT P6SM BKN035 OVC060
     FM061000 30005KT P6SM BKN030 OVC050=

USA.gov is the U.S. government's official web portal to all federal, state and local government web resources and services.